createdAt,value
2018-06-03T00:01:20.115Z,18.80
2018-06-03T00:03:48.300Z,18.80
2018-06-03T00:06:16.424Z,18.80
2018-06-03T00:08:44.521Z,18.70
2018-06-03T00:11:12.678Z,18.70
2018-06-03T00:13:40.853Z,18.70
2018-06-03T00:16:09.087Z,18.70
2018-06-03T00:18:37.233Z,18.60
2018-06-03T00:21:50.684Z,18.60
2018-06-03T00:24:18.844Z,18.60
2018-06-03T00:26:47.039Z,18.60
2018-06-03T00:29:15.230Z,18.60
2018-06-03T00:31:43.367Z,18.60
2018-06-03T00:34:11.509Z,18.60
2018-06-03T00:36:46.786Z,18.50
2018-06-03T00:39:15.042Z,18.50
2018-06-03T00:41:43.208Z,18.50
2018-06-03T00:44:11.326Z,18.40
2018-06-03T00:46:39.575Z,18.30
2018-06-03T00:49:07.716Z,18.30
2018-06-03T00:51:35.880Z,18.20
2018-06-03T00:54:04.055Z,18.30
2018-06-03T00:56:49.169Z,18.40
2018-06-03T00:59:17.335Z,18.30
2018-06-03T01:01:45.476Z,18.20
2018-06-03T01:04:13.617Z,18.30
2018-06-03T01:06:41.756Z,18.30
2018-06-03T01:09:09.949Z,18.30
2018-06-03T01:11:38.100Z,18.30
2018-06-03T01:14:09.916Z,18.30
2018-06-03T01:16:38.152Z,18.20
2018-06-03T01:19:06.314Z,18.20
2018-06-03T01:24:02.542Z,18.10
2018-06-03T01:26:30.655Z,18.10
2018-06-03T01:28:58.803Z,18.10
2018-06-03T01:31:27.047Z,18.10
2018-06-03T01:33:55.174Z,18.00
2018-06-03T01:36:30.032Z,18.00
2018-06-03T01:38:58.180Z,18.00
2018-06-03T01:41:26.303Z,17.90
2018-06-03T01:43:54.477Z,17.80
2018-06-03T01:46:22.668Z,17.80
2018-06-03T01:48:50.795Z,17.80
2018-06-03T01:51:18.969Z,17.70
2018-06-03T01:53:47.135Z,17.80
2018-06-03T01:56:15.258Z,17.80
2018-06-03T02:01:11.411Z,17.80
2018-06-03T02:03:39.497Z,17.70
2018-06-03T02:06:07.665Z,17.70
2018-06-03T02:08:35.791Z,17.70
2018-06-03T02:11:03.887Z,17.70
2018-06-03T02:13:31.991Z,17.70
2018-06-03T02:16:00.128Z,17.70
2018-06-03T02:18:28.294Z,17.70
2018-06-03T02:20:56.412Z,17.80
2018-06-03T02:23:24.537Z,17.90
2018-06-03T02:25:52.664Z,17.90
2018-06-03T02:28:20.778Z,17.80
2018-06-03T02:30:49.042Z,17.60
2018-06-03T02:33:17.110Z,17.50
2018-06-03T02:35:45.248Z,17.50
2018-06-03T02:38:13.333Z,17.50
2018-06-03T02:40:41.443Z,17.40
2018-06-03T02:45:37.595Z,17.30
2018-06-03T02:48:05.769Z,17.30
2018-06-03T02:50:33.920Z,17.30
2018-06-03T02:53:02.065Z,17.30
2018-06-03T02:55:30.213Z,17.40
2018-06-03T02:57:58.311Z,17.50
2018-06-03T03:00:26.407Z,17.50
2018-06-03T03:02:54.593Z,17.50
2018-06-03T03:07:50.753Z,17.30
2018-06-03T03:10:18.864Z,17.20
2018-06-03T03:12:47.010Z,17.20
2018-06-03T03:15:15.205Z,17.30
2018-06-03T03:17:43.266Z,17.30
2018-06-03T03:20:11.359Z,17.20
2018-06-03T03:22:39.452Z,17.20
2018-06-03T03:25:07.595Z,17.10
2018-06-03T03:27:35.731Z,17.10
2018-06-03T03:30:03.879Z,17.20
2018-06-03T03:32:32.004Z,17.10
2018-06-03T03:35:00.106Z,17.10
2018-06-03T03:37:28.209Z,17.20
2018-06-03T03:39:56.258Z,17.20
2018-06-03T03:42:24.424Z,17.20
2018-06-03T03:44:52.524Z,17.30
2018-06-03T03:47:20.660Z,17.20
2018-06-03T03:52:16.823Z,17.10
2018-06-03T03:54:44.938Z,17.20
2018-06-03T03:57:13.084Z,17.10
2018-06-03T03:59:41.197Z,17.10
2018-06-03T04:02:09.308Z,17.10
2018-06-03T04:04:37.428Z,17.20
2018-06-03T04:07:05.520Z,17.20
2018-06-03T04:09:34.203Z,17.20
2018-06-03T04:12:02.292Z,17.30
2018-06-03T04:14:30.375Z,17.30
2018-06-03T04:16:58.518Z,17.40
2018-06-03T04:19:26.607Z,17.40
2018-06-03T04:21:54.684Z,17.40
2018-06-03T04:24:22.784Z,17.40
2018-06-03T04:26:50.911Z,17.40
2018-06-03T04:31:53.916Z,17.40
2018-06-03T04:36:50.012Z,17.60
2018-06-03T04:39:18.092Z,17.60
2018-06-03T04:41:46.200Z,17.60
2018-06-03T04:44:14.325Z,17.50
2018-06-03T04:46:42.437Z,17.40
2018-06-03T04:49:10.561Z,17.40
2018-06-03T04:51:38.679Z,17.50
2018-06-03T04:56:34.867Z,17.70
2018-06-03T04:59:02.998Z,17.70
2018-06-03T05:01:31.126Z,17.60
2018-06-03T05:03:59.180Z,17.60
2018-06-03T05:06:27.274Z,17.70
2018-06-03T05:08:55.364Z,17.70
2018-06-03T05:11:23.520Z,17.80
2018-06-03T05:13:51.622Z,17.90
2018-06-03T05:16:19.716Z,18.00
2018-06-03T05:18:47.846Z,18.20
2018-06-03T05:21:16.008Z,18.10
2018-06-03T05:23:44.077Z,18.20
2018-06-03T05:26:12.192Z,18.20
2018-06-03T05:28:40.378Z,18.00
2018-06-03T05:31:08.492Z,18.00
2018-06-03T05:33:36.543Z,18.10
2018-06-03T05:36:04.664Z,18.20
2018-06-03T05:38:32.754Z,18.30
2018-06-03T05:41:00.874Z,18.30
2018-06-03T05:43:29.003Z,18.50
2018-06-03T05:45:57.111Z,18.60
2018-06-03T05:48:25.203Z,18.70
2018-06-03T05:50:53.324Z,18.70
2018-06-03T05:53:21.452Z,18.80
2018-06-03T05:55:49.549Z,18.80
2018-06-03T05:58:17.660Z,18.90
2018-06-03T06:00:45.813Z,19.00
2018-06-03T06:03:13.971Z,18.90
2018-06-03T06:05:42.108Z,19.00
2018-06-03T06:10:38.263Z,19.10
2018-06-03T06:13:06.388Z,19.20
2018-06-03T06:15:34.598Z,19.20
2018-06-03T06:18:02.708Z,19.20
2018-06-03T06:20:30.801Z,19.30
2018-06-03T06:22:58.924Z,19.40
2018-06-03T06:25:27.129Z,19.40
2018-06-03T06:27:55.292Z,19.40
2018-06-03T06:30:23.357Z,19.50
2018-06-03T06:32:51.469Z,19.50
2018-06-03T06:35:19.532Z,19.50
2018-06-03T06:37:47.690Z,19.50
2018-06-03T06:40:15.822Z,19.60
2018-06-03T06:42:43.936Z,19.60
2018-06-03T06:45:12.121Z,19.60
2018-06-03T06:47:40.200Z,19.70
2018-06-03T06:50:08.447Z,19.80
2018-06-03T06:52:36.484Z,19.50
2018-06-03T06:55:04.705Z,19.50
2018-06-03T06:57:32.832Z,19.50
2018-06-03T07:00:00.973Z,19.70
2018-06-03T07:02:29.090Z,19.90
2018-06-03T07:04:57.169Z,20.10
2018-06-03T07:07:25.299Z,20.20
2018-06-03T07:12:21.477Z,20.40
2018-06-03T07:14:49.718Z,20.40
2018-06-03T07:17:17.908Z,20.50
2018-06-03T07:19:45.972Z,20.60
2018-06-03T07:22:14.122Z,20.70
2018-06-03T07:27:10.320Z,20.80
2018-06-03T07:29:38.440Z,20.90
2018-06-03T07:32:06.663Z,20.90
2018-06-03T07:34:34.678Z,21.00
2018-06-03T07:37:02.842Z,20.90
2018-06-03T07:39:30.917Z,21.00
2018-06-03T07:41:59.059Z,21.10
2018-06-03T07:44:27.160Z,21.20
2018-06-03T07:46:55.335Z,21.30
2018-06-03T07:49:23.478Z,21.40
2018-06-03T07:51:51.696Z,21.50
2018-06-03T07:54:19.867Z,21.60
2018-06-03T07:56:47.966Z,21.70
2018-06-03T07:59:16.096Z,21.80
2018-06-03T08:01:44.212Z,21.80
2018-06-03T08:04:12.368Z,21.80
2018-06-03T08:06:40.562Z,21.80
2018-06-03T08:09:08.789Z,21.90
2018-06-03T08:11:36.992Z,21.90
2018-06-03T08:14:05.329Z,22.00
2018-06-03T08:16:33.537Z,22.10
2018-06-03T08:19:01.771Z,22.20
2018-06-03T08:21:30.417Z,22.10
2018-06-03T08:23:58.581Z,22.10
2018-06-03T08:26:26.677Z,22.10
2018-06-03T08:28:54.804Z,22.10
2018-06-03T08:31:23.008Z,22.30
2018-06-03T08:33:51.192Z,22.40
2018-06-03T08:36:19.377Z,22.50
2018-06-03T08:38:47.624Z,22.50
2018-06-03T08:41:16.035Z,22.70
2018-06-03T08:43:44.159Z,22.70
2018-06-03T08:46:12.497Z,22.70
2018-06-03T08:48:40.611Z,22.70
2018-06-03T08:51:08.769Z,22.80
2018-06-03T08:53:36.904Z,22.90
2018-06-03T08:56:05.113Z,22.80
2018-06-03T08:58:33.562Z,22.80
2018-06-03T09:01:01.845Z,23.00
2018-06-03T09:05:58.282Z,23.10
2018-06-03T09:08:26.605Z,23.10
2018-06-03T09:10:54.788Z,23.10
2018-06-03T09:13:23.020Z,23.20
2018-06-03T09:15:51.133Z,23.30
2018-06-03T09:18:19.453Z,23.40
2018-06-03T09:20:47.758Z,23.40
2018-06-03T09:23:15.978Z,23.40
2018-06-03T09:25:44.126Z,23.50
2018-06-03T09:28:12.339Z,23.50
2018-06-03T09:30:40.448Z,23.40
2018-06-03T09:33:08.655Z,23.40
2018-06-03T09:35:36.837Z,23.50
2018-06-03T09:38:05.021Z,23.60
2018-06-03T09:40:33.221Z,23.60
2018-06-03T09:43:01.421Z,23.70
2018-06-03T09:45:30.162Z,23.90
2018-06-03T09:47:58.417Z,23.60
2018-06-03T09:50:26.567Z,23.60
2018-06-03T09:52:54.745Z,23.50
2018-06-03T09:55:22.909Z,23.60
2018-06-03T09:57:51.032Z,23.70
2018-06-03T10:05:20.153Z,24.10
2018-06-03T10:07:49.203Z,24.20
2018-06-03T10:10:17.425Z,24.10
2018-06-03T10:12:45.813Z,24.00
2018-06-03T10:15:14.488Z,23.80
2018-06-03T10:17:42.961Z,23.90
2018-06-03T10:20:11.375Z,24.00
2018-06-03T10:22:39.765Z,24.00
2018-06-03T10:25:07.814Z,24.00
2018-06-03T10:27:37.111Z,24.00
2018-06-03T10:30:05.412Z,24.00
2018-06-03T10:32:33.696Z,24.10
2018-06-03T10:37:30.564Z,24.50
2018-06-03T10:39:58.740Z,24.60
2018-06-03T10:42:33.661Z,24.70
2018-06-03T10:45:01.813Z,24.70
2018-06-03T10:47:29.975Z,24.70
2018-06-03T10:49:58.336Z,24.70
2018-06-03T10:52:26.743Z,24.80
2018-06-03T10:54:55.081Z,24.90
2018-06-03T10:59:51.887Z,24.80
2018-06-03T11:02:20.364Z,24.70
2018-06-03T11:04:48.547Z,24.70
2018-06-03T11:07:16.810Z,24.50
2018-06-03T11:09:45.046Z,24.30
2018-06-03T11:12:13.253Z,24.50
2018-06-03T11:14:41.452Z,24.60
2018-06-03T11:17:09.594Z,24.40
2018-06-03T11:19:37.833Z,24.50
2018-06-03T11:24:34.173Z,24.70
2018-06-03T11:27:02.420Z,24.70
2018-06-03T11:29:30.648Z,24.90
2018-06-03T11:31:58.767Z,24.90
2018-06-03T11:34:26.930Z,25.00
2018-06-03T11:36:55.140Z,25.10
2018-06-03T11:39:23.336Z,25.20
2018-06-03T11:41:51.440Z,25.30
2018-06-03T11:44:19.642Z,25.10
2018-06-03T11:46:47.922Z,25.20
2018-06-03T11:49:16.150Z,25.20
2018-06-03T11:51:44.280Z,25.30
2018-06-03T11:54:12.443Z,25.20
2018-06-03T11:56:57.709Z,25.10
2018-06-03T11:59:43.017Z,25.20
2018-06-03T12:02:12.491Z,25.20
2018-06-03T12:07:08.843Z,25.60
2018-06-03T12:09:37.249Z,25.80
2018-06-03T12:12:05.559Z,26.00
2018-06-03T12:14:33.731Z,26.00
2018-06-03T12:17:01.941Z,26.00
2018-06-03T12:19:30.180Z,26.00
2018-06-03T12:21:58.340Z,25.90
2018-06-03T12:24:26.506Z,25.90
2018-06-03T12:26:54.730Z,25.80
2018-06-03T12:29:22.919Z,25.80
2018-06-03T12:31:51.137Z,25.80
2018-06-03T12:34:19.363Z,25.70
2018-06-03T12:36:47.608Z,25.80
2018-06-03T12:39:15.850Z,25.80
2018-06-03T12:41:44.080Z,26.00
2018-06-03T12:44:12.299Z,26.00
2018-06-03T12:46:40.558Z,26.10
2018-06-03T12:49:08.716Z,26.30
2018-06-03T12:51:36.856Z,26.50
2018-06-03T12:54:05.121Z,26.50
2018-06-03T12:56:33.300Z,26.50
2018-06-03T12:59:01.602Z,26.50
2018-06-03T13:01:29.806Z,26.30
2018-06-03T13:03:57.978Z,26.00
2018-06-03T13:06:26.100Z,26.10
2018-06-03T13:08:54.252Z,26.30
2018-06-03T13:11:22.457Z,26.50
2018-06-03T13:13:50.748Z,26.40
2018-06-03T13:16:18.891Z,26.50
2018-06-03T13:18:47.056Z,26.70
2018-06-03T13:21:15.180Z,26.70
2018-06-03T13:23:43.404Z,26.80
2018-06-03T13:26:11.532Z,26.80
2018-06-03T13:28:39.699Z,26.70
2018-06-03T13:31:07.845Z,26.70
2018-06-03T13:33:36.058Z,26.60
2018-06-03T13:36:04.748Z,26.80
2018-06-03T13:38:33.193Z,26.90
2018-06-03T13:41:01.378Z,27.10
2018-06-03T13:43:29.599Z,27.30
2018-06-03T13:45:57.745Z,27.40
2018-06-03T13:48:25.964Z,27.30
2018-06-03T13:53:22.119Z,27.50
2018-06-03T13:58:18.266Z,27.50
2018-06-03T14:00:46.522Z,27.40
2018-06-03T14:05:42.722Z,27.20
2018-06-03T14:08:10.828Z,27.10
2018-06-03T14:10:38.952Z,27.00
2018-06-03T14:13:07.051Z,26.90
2018-06-03T14:15:35.265Z,26.90
2018-06-03T14:18:03.441Z,26.90
2018-06-03T14:20:31.627Z,27.00
2018-06-03T14:22:59.809Z,27.20
2018-06-03T14:25:28.019Z,27.20
2018-06-03T14:27:56.216Z,27.00
2018-06-03T14:30:24.363Z,27.00
2018-06-03T14:32:52.511Z,27.00
2018-06-03T14:35:20.662Z,27.00
2018-06-03T14:37:48.864Z,26.90
2018-06-03T14:40:17.004Z,26.70
2018-06-03T14:42:45.186Z,26.70
2018-06-03T14:45:13.366Z,26.70
2018-06-03T14:47:41.565Z,26.70
2018-06-03T14:50:09.728Z,26.70
2018-06-03T14:52:37.896Z,26.70
2018-06-03T14:55:06.012Z,26.60
2018-06-03T14:57:34.224Z,26.60
2018-06-03T15:00:02.397Z,26.70
2018-06-03T15:02:30.584Z,26.70
2018-06-03T15:07:26.908Z,26.70
2018-06-03T15:09:55.016Z,26.60
2018-06-03T15:12:23.188Z,26.60
2018-06-03T15:14:51.329Z,26.50
2018-06-03T15:17:19.486Z,26.70
2018-06-03T15:19:47.703Z,26.70
2018-06-03T15:22:15.857Z,26.70
2018-06-03T15:24:43.995Z,26.70
2018-06-03T15:27:12.140Z,26.70
2018-06-03T15:32:08.378Z,26.90
2018-06-03T15:34:36.672Z,27.00
2018-06-03T15:37:04.822Z,27.10
2018-06-03T15:39:32.940Z,27.20
2018-06-03T15:42:01.084Z,27.30
2018-06-03T15:46:57.360Z,27.20
2018-06-03T15:49:25.591Z,27.00
2018-06-03T15:51:53.745Z,27.00
2018-06-03T15:54:21.870Z,26.90
2018-06-03T15:56:50.032Z,26.80
2018-06-03T16:01:46.376Z,26.60
2018-06-03T16:04:14.568Z,26.60
2018-06-03T16:06:42.786Z,26.50
2018-06-03T16:09:11.093Z,26.50
2018-06-03T16:11:39.248Z,26.60
2018-06-03T16:14:07.445Z,26.80
2018-06-03T16:16:35.578Z,26.90
2018-06-03T16:21:32.038Z,27.20
2018-06-03T16:24:00.196Z,27.30
2018-06-03T16:26:28.401Z,27.40
2018-06-03T16:28:56.567Z,27.40
2018-06-03T16:31:25.628Z,27.30
2018-06-03T16:33:53.799Z,27.20
2018-06-03T16:36:21.948Z,27.20
2018-06-03T16:38:50.065Z,27.20
2018-06-03T16:41:18.219Z,27.10
2018-06-03T16:43:46.345Z,27.10
2018-06-03T16:46:14.552Z,27.20
2018-06-03T16:48:42.840Z,27.10
2018-06-03T16:51:11.066Z,27.10
2018-06-03T16:53:39.261Z,27.10
2018-06-03T16:56:07.434Z,27.10
2018-06-03T16:58:35.683Z,27.10
2018-06-03T17:01:04.003Z,27.20
2018-06-03T17:03:32.170Z,27.20
2018-06-03T17:06:00.350Z,27.20
2018-06-03T17:08:28.485Z,27.10
2018-06-03T17:10:56.729Z,27.00
2018-06-03T17:13:24.880Z,27.00
2018-06-03T17:15:53.130Z,26.90
2018-06-03T17:18:21.289Z,26.90
2018-06-03T17:20:49.489Z,26.90
2018-06-03T17:23:17.742Z,26.90
2018-06-03T17:25:45.891Z,26.90
2018-06-03T17:28:14.122Z,26.90
2018-06-03T17:30:42.289Z,26.80
2018-06-03T17:33:10.521Z,26.80
2018-06-03T17:35:38.655Z,26.80
2018-06-03T17:40:35.135Z,26.80
2018-06-03T17:43:03.378Z,26.70
2018-06-03T17:45:31.619Z,26.60
2018-06-03T17:47:59.879Z,26.50
2018-06-03T17:50:28.096Z,26.50
2018-06-03T17:55:24.451Z,26.50
2018-06-03T17:57:52.709Z,26.50
2018-06-03T18:00:21.772Z,26.40
2018-06-03T18:02:49.945Z,26.40
2018-06-03T18:05:18.143Z,26.40
2018-06-03T18:07:46.352Z,26.40
2018-06-03T18:10:14.643Z,26.40
2018-06-03T18:12:42.811Z,26.40
2018-06-03T18:15:11.072Z,26.40
2018-06-03T18:17:39.261Z,26.40
2018-06-03T18:20:07.520Z,26.30
2018-06-03T18:22:36.584Z,26.40
2018-06-03T18:27:32.974Z,26.30
2018-06-03T18:30:01.218Z,26.20
2018-06-03T18:32:29.465Z,26.20
2018-06-03T18:34:57.578Z,26.10
2018-06-03T18:37:25.812Z,26.10
2018-06-03T18:39:53.964Z,26.20
2018-06-03T18:42:22.174Z,26.10
2018-06-03T18:47:18.443Z,26.10
2018-06-03T18:49:46.661Z,26.10
2018-06-03T18:52:14.873Z,26.00
2018-06-03T18:54:43.220Z,26.00
2018-06-03T18:57:11.341Z,26.00
2018-06-03T18:59:39.608Z,26.00
2018-06-03T19:02:08.886Z,25.90
2018-06-03T19:07:05.332Z,25.90
2018-06-03T19:09:33.501Z,25.80
2018-06-03T19:12:01.684Z,25.80
2018-06-03T19:14:29.914Z,25.80
2018-06-03T19:16:58.156Z,25.80
2018-06-03T19:19:26.655Z,25.70
2018-06-03T19:21:54.957Z,25.60
2018-06-03T19:24:23.141Z,25.70
2018-06-03T19:26:51.368Z,25.60
2018-06-03T19:29:19.640Z,25.50
2018-06-03T19:31:48.246Z,25.50
2018-06-03T19:34:16.612Z,25.40
2018-06-03T19:36:44.957Z,25.40
2018-06-03T19:39:13.175Z,25.40
2018-06-03T19:41:41.473Z,25.30
2018-06-03T19:44:09.716Z,25.30
2018-06-03T19:46:38.400Z,25.20
2018-06-03T19:49:06.654Z,25.20
2018-06-03T19:51:34.960Z,25.20
2018-06-03T19:54:03.188Z,25.00
2018-06-03T19:56:31.420Z,24.90
2018-06-03T19:58:59.730Z,24.70
2018-06-03T20:01:27.949Z,24.60
2018-06-03T20:03:56.402Z,24.70
2018-06-03T20:06:24.536Z,24.50
2018-06-03T20:08:52.863Z,24.40
2018-06-03T20:11:21.112Z,24.20
2018-06-03T20:13:51.524Z,24.10
2018-06-03T20:16:19.924Z,24.00
2018-06-03T20:18:48.395Z,23.80
2018-06-03T20:21:16.594Z,23.70
2018-06-03T20:23:46.287Z,23.60
2018-06-03T20:26:15.544Z,23.50
2018-06-03T20:28:43.984Z,23.40
2018-06-03T20:31:12.293Z,23.30
2018-06-03T20:33:41.686Z,23.20
2018-06-03T20:36:10.844Z,23.20
2018-06-03T20:38:39.178Z,23.20
2018-06-03T21:12:00.636Z,22.60
2018-06-03T21:22:49.980Z,22.30
2018-06-03T21:25:18.237Z,22.30
2018-06-03T21:27:46.418Z,22.10
2018-06-03T21:30:14.708Z,22.10
2018-06-03T21:32:42.903Z,22.10
2018-06-03T21:37:39.180Z,22.10
2018-06-03T21:40:07.394Z,22.00
2018-06-03T21:42:35.536Z,21.80
2018-06-03T21:45:03.737Z,21.70
2018-06-03T21:47:32.017Z,21.70
2018-06-03T21:50:00.172Z,21.60
2018-06-03T21:52:28.349Z,21.40
2018-06-03T21:54:56.548Z,21.40
2018-06-03T21:57:24.706Z,21.30
2018-06-03T21:59:52.912Z,21.40
2018-06-03T22:02:21.161Z,21.40
2018-06-03T22:04:49.367Z,21.30
2018-06-03T22:07:17.592Z,21.40
2018-06-03T22:09:45.804Z,21.50
2018-06-03T22:14:42.182Z,21.30
2018-06-03T22:17:10.400Z,21.20
2018-06-03T22:19:38.593Z,21.20
2018-06-03T22:22:06.800Z,21.20
2018-06-03T22:24:35.025Z,21.10
2018-06-03T22:27:03.180Z,21.10
2018-06-03T22:29:31.429Z,21.00
2018-06-03T22:31:59.558Z,20.90
2018-06-03T22:34:27.744Z,20.90
2018-06-03T22:36:55.927Z,20.90
2018-06-03T22:39:24.147Z,20.90
2018-06-03T22:41:52.275Z,20.80
2018-06-03T22:44:20.476Z,20.80
2018-06-03T22:46:48.609Z,20.80
2018-06-03T22:49:16.716Z,20.70
2018-06-03T22:51:44.881Z,20.60
2018-06-03T22:54:13.098Z,20.70
2018-06-03T22:57:00.015Z,20.70
2018-06-03T23:01:56.406Z,20.60
2018-06-03T23:04:24.504Z,20.60
2018-06-03T23:06:52.677Z,20.50
2018-06-03T23:09:20.825Z,20.50
2018-06-03T23:11:48.937Z,20.40
2018-06-03T23:16:45.624Z,20.40
2018-06-03T23:19:13.788Z,20.40
2018-06-03T23:21:41.959Z,20.30
2018-06-03T23:24:10.351Z,20.40
2018-06-03T23:26:38.599Z,20.30
2018-06-03T23:29:06.715Z,20.20
2018-06-03T23:31:34.838Z,20.10
2018-06-03T23:36:31.260Z,20.10
2018-06-03T23:38:59.392Z,20.10
2018-06-03T23:41:27.564Z,20.10
2018-06-03T23:43:55.654Z,20.10
2018-06-03T23:46:23.816Z,20.00
2018-06-03T23:48:51.957Z,20.00
2018-06-03T23:51:20.183Z,20.00
2018-06-03T23:56:16.471Z,20.10
